Aviation Digital Data Service (ADDS)

Output produced by METARs form (2209 UTC 28 August 2015)
found at http://aviationweather.gov/adds/metars/
 
KAND 281723Z 2818/2918 09009KT P6SM SCT040 SCT250 
     FM290200 09003KT P6SM FEW250 
     FM290800 00000KT P6SM SCT017 
     FM291300 08004KT P6SM BKN024